sensor_id;sensor_type;location;lat;lon;timestamp;P1;durP1;ratioP1;P2;durP2;ratioP2
13605;SDS011;6874;52.084;5.090;2022-08-16T00:00:47;202.23;;;195.83;;
13605;SDS011;6874;52.084;5.090;2022-08-16T00:03:14;196.40;;;190.10;;
13605;SDS011;6874;52.084;5.090;2022-08-16T00:05:39;206.37;;;199.87;;
13605;SDS011;6874;52.084;5.090;2022-08-16T00:08:05;207.10;;;200.57;;
13605;SDS011;6874;52.084;5.090;2022-08-16T00:10:31;179.47;;;173.70;;
13605;SDS011;6874;52.084;5.090;2022-08-16T00:12:58;182.77;;;176.97;;
13605;SDS011;6874;52.084;5.090;2022-08-16T00:15:26;199.20;;;192.90;;
13605;SDS011;6874;52.084;5.090;2022-08-16T00:18:13;181.53;;;175.80;;
13605;SDS011;6874;52.084;5.090;2022-08-16T00:20:42;171.87;;;166.40;;
13605;SDS011;6874;52.084;5.090;2022-08-16T00:23:09;176.30;;;170.67;;
13605;SDS011;6874;52.084;5.090;2022-08-16T00:25:36;167.00;;;161.63;;
13605;SDS011;6874;52.084;5.090;2022-08-16T00:28:03;168.33;;;162.97;;
13605;SDS011;6874;52.084;5.090;2022-08-16T00:30:30;191.50;;;185.43;;
13605;SDS011;6874;52.084;5.090;2022-08-16T00:32:57;180.43;;;174.73;;
13605;SDS011;6874;52.084;5.090;2022-08-16T00:35:27;177.17;;;171.50;;
13605;SDS011;6874;52.084;5.090;2022-08-16T00:37:57;187.50;;;181.47;;
13605;SDS011;6874;52.084;5.090;2022-08-16T00:40:34;157.73;;;152.67;;
13605;SDS011;6874;52.084;5.090;2022-08-16T00:43:06;164.90;;;159.60;;
13605;SDS011;6874;52.084;5.090;2022-08-16T00:48:41;167.10;;;161.67;;
13605;SDS011;6874;52.084;5.090;2022-08-16T00:51:08;188.87;;;182.73;;
13605;SDS011;6874;52.084;5.090;2022-08-16T00:53:34;198.03;;;191.63;;
13605;SDS011;6874;52.084;5.090;2022-08-16T00:56:01;199.03;;;192.57;;
13605;SDS011;6874;52.084;5.090;2022-08-16T00:58:30;189.47;;;183.27;;
13605;SDS011;6874;52.084;5.090;2022-08-16T01:00:57;201.07;;;194.53;;
13605;SDS011;6874;52.084;5.090;2022-08-16T01:03:24;206.13;;;199.33;;
13605;SDS011;6874;52.084;5.090;2022-08-16T01:05:51;202.60;;;195.93;;
13605;SDS011;6874;52.084;5.090;2022-08-16T01:08:18;216.53;;;209.43;;
13605;SDS011;6874;52.084;5.090;2022-08-16T01:10:46;208.00;;;201.17;;
13605;SDS011;6874;52.084;5.090;2022-08-16T01:13:16;219.30;;;212.07;;
13605;SDS011;6874;52.084;5.090;2022-08-16T01:16:19;222.60;;;215.30;;
13605;SDS011;6874;52.084;5.090;2022-08-16T01:18:46;213.97;;;206.93;;
13605;SDS011;6874;52.084;5.090;2022-08-16T01:26:50;214.43;;;207.33;;
13605;SDS011;6874;52.084;5.090;2022-08-16T01:29:25;232.77;;;225.07;;
13605;SDS011;6874;52.084;5.090;2022-08-16T01:31:55;240.13;;;232.10;;
13605;SDS011;6874;52.084;5.090;2022-08-16T01:34:21;247.73;;;239.47;;
13605;SDS011;6874;52.084;5.090;2022-08-16T01:36:47;238.97;;;231.07;;
13605;SDS011;6874;52.084;5.090;2022-08-16T01:39:14;247.50;;;239.30;;
13605;SDS011;6874;52.084;5.090;2022-08-16T01:41:41;249.90;;;241.63;;
13605;SDS011;6874;52.084;5.090;2022-08-16T01:44:08;258.30;;;249.73;;
13605;SDS011;6874;52.084;5.090;2022-08-16T01:49:04;250.93;;;242.63;;
13605;SDS011;6874;52.084;5.090;2022-08-16T01:51:33;250.87;;;242.57;;
13605;SDS011;6874;52.084;5.090;2022-08-16T01:54:00;257.63;;;249.03;;
13605;SDS011;6874;52.084;5.090;2022-08-16T01:56:26;264.03;;;255.27;;
13605;SDS011;6874;52.084;5.090;2022-08-16T01:58:53;260.00;;;251.43;;
13605;SDS011;6874;52.084;5.090;2022-08-16T02:01:21;259.87;;;251.27;;
13605;SDS011;6874;52.084;5.090;2022-08-16T02:03:47;265.20;;;256.40;;
13605;SDS011;6874;52.084;5.090;2022-08-16T02:06:13;271.93;;;262.90;;
13605;SDS011;6874;52.084;5.090;2022-08-16T02:08:38;280.47;;;271.20;;
13605;SDS011;6874;52.084;5.090;2022-08-16T02:11:05;268.33;;;259.43;;
13605;SDS011;6874;52.084;5.090;2022-08-16T02:13:32;272.00;;;262.97;;
13605;SDS011;6874;52.084;5.090;2022-08-16T02:16:05;265.20;;;256.50;;
13605;SDS011;6874;52.084;5.090;2022-08-16T02:18:31;273.33;;;264.27;;
13605;SDS011;6874;52.084;5.090;2022-08-16T02:20:56;262.10;;;253.43;;
13605;SDS011;6874;52.084;5.090;2022-08-16T02:23:22;282.83;;;273.47;;
13605;SDS011;6874;52.084;5.090;2022-08-16T02:25:48;288.40;;;278.90;;
13605;SDS011;6874;52.084;5.090;2022-08-16T02:28:14;288.63;;;279.07;;
13605;SDS011;6874;52.084;5.090;2022-08-16T02:30:40;293.93;;;284.20;;
13605;SDS011;6874;52.084;5.090;2022-08-16T02:33:06;275.23;;;266.17;;
13605;SDS011;6874;52.084;5.090;2022-08-16T02:35:33;272.03;;;263.13;;
13605;SDS011;6874;52.084;5.090;2022-08-16T02:37:59;289.00;;;279.47;;
13605;SDS011;6874;52.084;5.090;2022-08-16T02:40:25;291.90;;;282.37;;
13605;SDS011;6874;52.084;5.090;2022-08-16T02:42:51;290.67;;;281.13;;
13605;SDS011;6874;52.084;5.090;2022-08-16T02:45:19;292.30;;;282.80;;
13605;SDS011;6874;52.084;5.090;2022-08-16T02:47:47;293.57;;;284.13;;
13605;SDS011;6874;52.084;5.090;2022-08-16T02:50:12;292.90;;;283.43;;
13605;SDS011;6874;52.084;5.090;2022-08-16T02:52:38;296.17;;;286.57;;
13605;SDS011;6874;52.084;5.090;2022-08-16T02:55:04;294.63;;;285.07;;
13605;SDS011;6874;52.084;5.090;2022-08-16T02:57:31;297.67;;;288.00;;
13605;SDS011;6874;52.084;5.090;2022-08-16T02:59:58;318.13;;;307.83;;
13605;SDS011;6874;52.084;5.090;2022-08-16T03:02:24;303.20;;;293.47;;
13605;SDS011;6874;52.084;5.090;2022-08-16T03:04:50;320.37;;;310.07;;
13605;SDS011;6874;52.084;5.090;2022-08-16T03:07:15;315.87;;;305.77;;
13605;SDS011;6874;52.084;5.090;2022-08-16T03:09:43;328.30;;;317.70;;
13605;SDS011;6874;52.084;5.090;2022-08-16T03:12:09;312.77;;;302.77;;
13605;SDS011;6874;52.084;5.090;2022-08-16T03:14:34;327.07;;;316.60;;
13605;SDS011;6874;52.084;5.090;2022-08-16T03:17:00;335.17;;;324.33;;
13605;SDS011;6874;52.084;5.090;2022-08-16T03:19:27;344.37;;;333.20;;
13605;SDS011;6874;52.084;5.090;2022-08-16T03:21:54;331.60;;;320.90;;
13605;SDS011;6874;52.084;5.090;2022-08-16T03:24:20;350.03;;;338.70;;
13605;SDS011;6874;52.084;5.090;2022-08-16T03:26:45;362.03;;;350.30;;
13605;SDS011;6874;52.084;5.090;2022-08-16T03:29:11;358.83;;;347.20;;
13605;SDS011;6874;52.084;5.090;2022-08-16T03:31:36;360.87;;;349.23;;
13605;SDS011;6874;52.084;5.090;2022-08-16T03:34:02;373.53;;;361.37;;
13605;SDS011;6874;52.084;5.090;2022-08-16T03:36:28;385.30;;;372.63;;
13605;SDS011;6874;52.084;5.090;2022-08-16T03:38:53;385.20;;;372.50;;
13605;SDS011;6874;52.084;5.090;2022-08-16T03:41:19;399.93;;;386.60;;
13605;SDS011;6874;52.084;5.090;2022-08-16T03:43:44;408.83;;;395.17;;
13605;SDS011;6874;52.084;5.090;2022-08-16T03:46:10;410.13;;;396.53;;
13605;SDS011;6874;52.084;5.090;2022-08-16T03:48:37;414.67;;;400.83;;
13605;SDS011;6874;52.084;5.090;2022-08-16T03:51:04;429.87;;;415.43;;
13605;SDS011;6874;52.084;5.090;2022-08-16T03:53:32;431.50;;;416.97;;
13605;SDS011;6874;52.084;5.090;2022-08-16T03:55:58;431.27;;;416.77;;
13605;SDS011;6874;52.084;5.090;2022-08-16T03:58:24;426.93;;;412.67;;
13605;SDS011;6874;52.084;5.090;2022-08-16T04:00:50;437.83;;;423.10;;
13605;SDS011;6874;52.084;5.090;2022-08-16T04:03:15;449.60;;;434.33;;
13605;SDS011;6874;52.084;5.090;2022-08-16T04:05:43;441.50;;;426.60;;
13605;SDS011;6874;52.084;5.090;2022-08-16T04:08:10;455.40;;;439.77;;
13605;SDS011;6874;52.084;5.090;2022-08-16T04:10:37;457.97;;;442.33;;
13605;SDS011;6874;52.084;5.090;2022-08-16T04:13:03;451.90;;;436.37;;
13605;SDS011;6874;52.084;5.090;2022-08-16T04:15:28;441.23;;;426.20;;
13605;SDS011;6874;52.084;5.090;2022-08-16T04:17:54;444.33;;;429.13;;
13605;SDS011;6874;52.084;5.090;2022-08-16T04:20:22;429.63;;;414.93;;
13605;SDS011;6874;52.084;5.090;2022-08-16T04:22:48;412.83;;;398.77;;
13605;SDS011;6874;52.084;5.090;2022-08-16T04:25:13;413.17;;;399.20;;
13605;SDS011;6874;52.084;5.090;2022-08-16T04:27:39;409.53;;;395.63;;
13605;SDS011;6874;52.084;5.090;2022-08-16T04:30:06;404.57;;;390.73;;
13605;SDS011;6874;52.084;5.090;2022-08-16T04:32:35;373.97;;;361.27;;
13605;SDS011;6874;52.084;5.090;2022-08-16T04:35:03;375.73;;;363.03;;
13605;SDS011;6874;52.084;5.090;2022-08-16T04:37:33;361.57;;;349.33;;
13605;SDS011;6874;52.084;5.090;2022-08-16T04:39:59;360.07;;;347.90;;
13605;SDS011;6874;52.084;5.090;2022-08-16T04:42:24;338.13;;;326.60;;
13605;SDS011;6874;52.084;5.090;2022-08-16T04:44:51;333.93;;;322.57;;
13605;SDS011;6874;52.084;5.090;2022-08-16T04:47:19;328.77;;;317.57;;
13605;SDS011;6874;52.084;5.090;2022-08-16T04:49:44;330.00;;;318.70;;
13605;SDS011;6874;52.084;5.090;2022-08-16T04:52:10;313.07;;;302.30;;
13605;SDS011;6874;52.084;5.090;2022-08-16T04:54:36;317.30;;;306.50;;
13605;SDS011;6874;52.084;5.090;2022-08-16T04:57:02;312.23;;;301.53;;
13605;SDS011;6874;52.084;5.090;2022-08-16T04:59:27;307.77;;;297.23;;
13605;SDS011;6874;52.084;5.090;2022-08-16T05:01:53;307.43;;;297.00;;
13605;SDS011;6874;52.084;5.090;2022-08-16T05:04:21;289.60;;;279.70;;
13605;SDS011;6874;52.084;5.090;2022-08-16T05:06:48;288.30;;;278.50;;
13605;SDS011;6874;52.084;5.090;2022-08-16T05:09:14;289.83;;;279.90;;
13605;SDS011;6874;52.084;5.090;2022-08-16T05:11:39;276.97;;;267.47;;
13605;SDS011;6874;52.084;5.090;2022-08-16T05:14:05;274.73;;;265.40;;
13605;SDS011;6874;52.084;5.090;2022-08-16T05:16:30;262.93;;;254.03;;
13605;SDS011;6874;52.084;5.090;2022-08-16T05:18:57;266.53;;;257.53;;
13605;SDS011;6874;52.084;5.090;2022-08-16T05:21:26;243.87;;;235.60;;
13605;SDS011;6874;52.084;5.090;2022-08-16T05:23:53;252.10;;;243.53;;
13605;SDS011;6874;52.084;5.090;2022-08-16T05:26:19;241.87;;;233.60;;
13605;SDS011;6874;52.084;5.090;2022-08-16T05:28:46;237.07;;;229.03;;
13605;SDS011;6874;52.084;5.090;2022-08-16T05:31:12;243.43;;;235.17;;
13605;SDS011;6874;52.084;5.090;2022-08-16T05:33:37;242.47;;;234.20;;
13605;SDS011;6874;52.084;5.090;2022-08-16T05:36:03;222.83;;;215.17;;
13605;SDS011;6874;52.084;5.090;2022-08-16T05:38:29;230.23;;;222.53;;
13605;SDS011;6874;52.084;5.090;2022-08-16T05:40:55;218.97;;;211.47;;
13605;SDS011;6874;52.084;5.090;2022-08-16T05:43:22;209.97;;;202.80;;
13605;SDS011;6874;52.084;5.090;2022-08-16T05:45:48;214.37;;;207.03;;
13605;SDS011;6874;52.084;5.090;2022-08-16T05:48:14;204.23;;;197.23;;
13605;SDS011;6874;52.084;5.090;2022-08-16T05:50:40;213.30;;;206.07;;
13605;SDS011;6874;52.084;5.090;2022-08-16T05:53:06;202.10;;;195.23;;
13605;SDS011;6874;52.084;5.090;2022-08-16T05:55:31;205.90;;;198.93;;
13605;SDS011;6874;52.084;5.090;2022-08-16T05:57:57;213.47;;;206.27;;
13605;SDS011;6874;52.084;5.090;2022-08-16T06:00:22;201.93;;;195.03;;
13605;SDS011;6874;52.084;5.090;2022-08-16T06:02:49;208.40;;;201.33;;
13605;SDS011;6874;52.084;5.090;2022-08-16T06:05:15;195.97;;;189.23;;
13605;SDS011;6874;52.084;5.090;2022-08-16T06:07:41;190.93;;;184.37;;
13605;SDS011;6874;52.084;5.090;2022-08-16T06:10:06;201.97;;;195.13;;
13605;SDS011;6874;52.084;5.090;2022-08-16T06:12:33;206.73;;;199.67;;
13605;SDS011;6874;52.084;5.090;2022-08-16T06:14:59;205.60;;;198.60;;
13605;SDS011;6874;52.084;5.090;2022-08-16T06:17:27;203.23;;;196.27;;
13605;SDS011;6874;52.084;5.090;2022-08-16T06:19:54;214.33;;;207.00;;
13605;SDS011;6874;52.084;5.090;2022-08-16T06:22:20;206.77;;;199.57;;
13605;SDS011;6874;52.084;5.090;2022-08-16T06:24:45;211.90;;;204.67;;
13605;SDS011;6874;52.084;5.090;2022-08-16T06:27:11;210.03;;;202.90;;
13605;SDS011;6874;52.084;5.090;2022-08-16T06:29:37;208.80;;;201.57;;
13605;SDS011;6874;52.084;5.090;2022-08-16T06:32:03;215.83;;;208.43;;
13605;SDS011;6874;52.084;5.090;2022-08-16T06:34:29;216.60;;;209.17;;
13605;SDS011;6874;52.084;5.090;2022-08-16T06:36:55;224.83;;;217.07;;
13605;SDS011;6874;52.084;5.090;2022-08-16T06:39:20;217.87;;;210.23;;
13605;SDS011;6874;52.084;5.090;2022-08-16T06:41:46;205.80;;;198.50;;
13605;SDS011;6874;52.084;5.090;2022-08-16T06:44:11;221.13;;;213.33;;
13605;SDS011;6874;52.084;5.090;2022-08-16T06:46:37;216.43;;;208.63;;
13605;SDS011;6874;52.084;5.090;2022-08-16T06:49:03;211.60;;;204.17;;
13605;SDS011;6874;52.084;5.090;2022-08-16T06:51:31;209.80;;;202.37;;
13605;SDS011;6874;52.084;5.090;2022-08-16T06:53:57;197.43;;;190.43;;
13605;SDS011;6874;52.084;5.090;2022-08-16T06:56:22;187.47;;;180.70;;
13605;SDS011;6874;52.084;5.090;2022-08-16T06:58:48;177.27;;;170.83;;
13605;SDS011;6874;52.084;5.090;2022-08-16T07:01:14;178.00;;;171.57;;
13605;SDS011;6874;52.084;5.090;2022-08-16T07:03:40;155.67;;;149.97;;
13605;SDS011;6874;52.084;5.090;2022-08-16T07:06:05;154.97;;;149.33;;
13605;SDS011;6874;52.084;5.090;2022-08-16T07:08:31;160.97;;;155.17;;
13605;SDS011;6874;52.084;5.090;2022-08-16T07:10:57;165.70;;;159.67;;
13605;SDS011;6874;52.084;5.090;2022-08-16T07:13:23;171.87;;;165.73;;
13605;SDS011;6874;52.084;5.090;2022-08-16T07:15:49;164.73;;;158.83;;
13605;SDS011;6874;52.084;5.090;2022-08-16T07:18:15;173.63;;;167.30;;
13605;SDS011;6874;52.084;5.090;2022-08-16T07:20:43;161.53;;;155.63;;
13605;SDS011;6874;52.084;5.090;2022-08-16T07:23:09;176.50;;;170.07;;
13605;SDS011;6874;52.084;5.090;2022-08-16T07:25:35;190.07;;;183.37;;
13605;SDS011;6874;52.084;5.090;2022-08-16T07:28:00;214.97;;;207.43;;
13605;SDS011;6874;52.084;5.090;2022-08-16T07:30:26;214.60;;;207.23;;
13605;SDS011;6874;52.084;5.090;2022-08-16T07:32:53;202.17;;;195.13;;
13605;SDS011;6874;52.084;5.090;2022-08-16T07:35:19;180.53;;;174.13;;
13605;SDS011;6874;52.084;5.090;2022-08-16T07:37:45;178.23;;;172.00;;
13605;SDS011;6874;52.084;5.090;2022-08-16T07:40:11;178.10;;;171.77;;
13605;SDS011;6874;52.084;5.090;2022-08-16T07:42:36;161.03;;;155.33;;
13605;SDS011;6874;52.084;5.090;2022-08-16T07:45:03;160.00;;;154.30;;
13605;SDS011;6874;52.084;5.090;2022-08-16T07:47:29;158.93;;;153.27;;
13605;SDS011;6874;52.084;5.090;2022-08-16T07:49:55;158.13;;;152.53;;
13605;SDS011;6874;52.084;5.090;2022-08-16T07:52:20;157.07;;;151.53;;
13605;SDS011;6874;52.084;5.090;2022-08-16T07:54:46;149.53;;;144.30;;
13605;SDS011;6874;52.084;5.090;2022-08-16T07:57:12;146.07;;;140.90;;
13605;SDS011;6874;52.084;5.090;2022-08-16T07:59:38;188.80;;;182.23;;
13605;SDS011;6874;52.084;5.090;2022-08-16T08:02:03;265.27;;;256.23;;
13605;SDS011;6874;52.084;5.090;2022-08-16T08:04:29;279.80;;;270.27;;
13605;SDS011;6874;52.084;5.090;2022-08-16T08:06:56;296.53;;;286.43;;
13605;SDS011;6874;52.084;5.090;2022-08-16T08:09:22;264.80;;;255.90;;
13605;SDS011;6874;52.084;5.090;2022-08-16T08:11:48;211.93;;;204.73;;
13605;SDS011;6874;52.084;5.090;2022-08-16T08:14:14;195.63;;;188.93;;
13605;SDS011;6874;52.084;5.090;2022-08-16T08:16:40;181.23;;;174.93;;
13605;SDS011;6874;52.084;5.090;2022-08-16T08:19:07;173.13;;;167.07;;
13605;SDS011;6874;52.084;5.090;2022-08-16T08:21:36;157.27;;;151.77;;
13605;SDS011;6874;52.084;5.090;2022-08-16T08:24:04;161.83;;;156.17;;
13605;SDS011;6874;52.084;5.090;2022-08-16T08:26:31;171.30;;;165.33;;
13605;SDS011;6874;52.084;5.090;2022-08-16T08:28:57;186.83;;;180.33;;
13605;SDS011;6874;52.084;5.090;2022-08-16T08:31:23;184.40;;;178.00;;
13605;SDS011;6874;52.084;5.090;2022-08-16T08:33:49;202.10;;;195.10;;
13605;SDS011;6874;52.084;5.090;2022-08-16T08:36:16;198.90;;;192.13;;
13605;SDS011;6874;52.084;5.090;2022-08-16T08:38:49;201.47;;;194.63;;
13605;SDS011;6874;52.084;5.090;2022-08-16T08:41:16;232.10;;;224.27;;
13605;SDS011;6874;52.084;5.090;2022-08-16T08:43:42;231.57;;;223.80;;
13605;SDS011;6874;52.084;5.090;2022-08-16T08:46:08;231.77;;;224.10;;
13605;SDS011;6874;52.084;5.090;2022-08-16T08:48:33;231.37;;;223.77;;
13605;SDS011;6874;52.084;5.090;2022-08-16T08:51:00;249.50;;;241.30;;
13605;SDS011;6874;52.084;5.090;2022-08-16T08:53:27;244.77;;;236.63;;
13605;SDS011;6874;52.084;5.090;2022-08-16T08:55:52;246.87;;;238.63;;
13605;SDS011;6874;52.084;5.090;2022-08-16T08:58:18;267.73;;;258.73;;
13605;SDS011;6874;52.084;5.090;2022-08-16T09:00:44;262.87;;;253.90;;
13605;SDS011;6874;52.084;5.090;2022-08-16T09:03:10;267.00;;;257.83;;
13605;SDS011;6874;52.084;5.090;2022-08-16T09:05:38;285.03;;;275.10;;
13605;SDS011;6874;52.084;5.090;2022-08-16T09:08:04;289.80;;;279.57;;
13605;SDS011;6874;52.084;5.090;2022-08-16T09:10:30;301.27;;;290.60;;
13605;SDS011;6874;52.084;5.090;2022-08-16T09:12:57;306.50;;;295.53;;
13605;SDS011;6874;52.084;5.090;2022-08-16T09:15:22;312.67;;;301.37;;
13605;SDS011;6874;52.084;5.090;2022-08-16T09:17:51;321.43;;;309.67;;
13605;SDS011;6874;52.084;5.090;2022-08-16T09:20:19;323.20;;;311.30;;
13605;SDS011;6874;52.084;5.090;2022-08-16T09:22:46;324.43;;;312.47;;
13605;SDS011;6874;52.084;5.090;2022-08-16T09:25:14;333.73;;;321.37;;
13605;SDS011;6874;52.084;5.090;2022-08-16T09:27:39;326.50;;;314.43;;
13605;SDS011;6874;52.084;5.090;2022-08-16T09:30:05;330.90;;;318.57;;
13605;SDS011;6874;52.084;5.090;2022-08-16T09:32:32;318.53;;;306.73;;
13605;SDS011;6874;52.084;5.090;2022-08-16T09:35:10;315.33;;;303.60;;
13605;SDS011;6874;52.084;5.090;2022-08-16T09:37:38;308.73;;;297.13;;
13605;SDS011;6874;52.084;5.090;2022-08-16T09:40:07;336.43;;;323.83;;
13605;SDS011;6874;52.084;5.090;2022-08-16T09:42:33;315.70;;;304.10;;
13605;SDS011;6874;52.084;5.090;2022-08-16T09:45:00;312.00;;;300.67;;
13605;SDS011;6874;52.084;5.090;2022-08-16T09:47:26;303.00;;;292.10;;
13605;SDS011;6874;52.084;5.090;2022-08-16T09:49:52;316.43;;;305.07;;
13605;SDS011;6874;52.084;5.090;2022-08-16T09:52:17;347.40;;;334.87;;
13605;SDS011;6874;52.084;5.090;2022-08-16T09:54:43;378.27;;;364.47;;
13605;SDS011;6874;52.084;5.090;2022-08-16T09:57:09;420.43;;;404.73;;
13605;SDS011;6874;52.084;5.090;2022-08-16T09:59:34;450.57;;;433.33;;
13605;SDS011;6874;52.084;5.090;2022-08-16T10:02:00;497.00;;;477.17;;
13605;SDS011;6874;52.084;5.090;2022-08-16T10:04:26;515.13;;;494.07;;
13605;SDS011;6874;52.084;5.090;2022-08-16T10:06:52;544.17;;;521.40;;
13605;SDS011;6874;52.084;5.090;2022-08-16T10:52:58;896.70;;;844.07;;
13605;SDS011;6874;52.084;5.090;2022-08-16T11:00:41;883.83;;;834.43;;
13605;SDS011;6874;52.084;5.090;2022-08-16T11:08:17;883.03;;;840.53;;
13605;SDS011;6874;52.084;5.090;2022-08-16T11:10:43;860.43;;;818.57;;
13605;SDS011;6874;52.084;5.090;2022-08-16T11:36:48;771.10;;;735.83;;
13605;SDS011;6874;52.084;5.090;2022-08-16T11:41:51;653.80;;;623.83;;
13605;SDS011;6874;52.084;5.090;2022-08-16T11:44:17;632.97;;;603.27;;
13605;SDS011;6874;52.084;5.090;2022-08-16T11:46:42;622.37;;;593.03;;
13605;SDS011;6874;52.084;5.090;2022-08-16T11:54:18;523.07;;;500.30;;
13605;SDS011;6874;52.084;5.090;2022-08-16T11:59:20;434.27;;;416.30;;
13605;SDS011;6874;52.084;5.090;2022-08-16T12:06:56;329.27;;;315.40;;
13605;SDS011;6874;52.084;5.090;2022-08-16T12:11:51;484.70;;;461.37;;
13605;SDS011;6874;52.084;5.090;2022-08-16T12:14:17;485.27;;;461.60;;
13605;SDS011;6874;52.084;5.090;2022-08-16T12:19:18;469.87;;;447.37;;
13605;SDS011;6874;52.084;5.090;2022-08-16T12:24:29;462.07;;;442.67;;
13605;SDS011;6874;52.084;5.090;2022-08-16T12:26:55;518.47;;;497.37;;
13605;SDS011;6874;52.084;5.090;2022-08-16T12:31:57;559.23;;;534.77;;
13605;SDS011;6874;52.084;5.090;2022-08-16T12:37:00;397.97;;;381.17;;
13605;SDS011;6874;52.084;5.090;2022-08-16T12:47:32;399.60;;;383.03;;
13605;SDS011;6874;52.084;5.090;2022-08-16T12:50:17;402.73;;;385.93;;
13605;SDS011;6874;52.084;5.090;2022-08-16T13:08:16;438.83;;;420.33;;
13605;SDS011;6874;52.084;5.090;2022-08-16T13:10:44;440.27;;;421.97;;
13605;SDS011;6874;52.084;5.090;2022-08-16T13:19:09;408.13;;;391.13;;
13605;SDS011;6874;52.084;5.090;2022-08-16T13:50:05;444.60;;;425.77;;
13605;SDS011;6874;52.084;5.090;2022-08-16T13:52:31;456.23;;;436.93;;
13605;SDS011;6874;52.084;5.090;2022-08-16T13:57:33;449.93;;;430.67;;
13605;SDS011;6874;52.084;5.090;2022-08-16T14:02:35;445.93;;;427.00;;
13605;SDS011;6874;52.084;5.090;2022-08-16T14:36:01;374.50;;;357.10;;
13605;SDS011;6874;52.084;5.090;2022-08-16T14:51:23;368.47;;;350.80;;
13605;SDS011;6874;52.084;5.090;2022-08-16T14:53:49;370.90;;;353.10;;
13605;SDS011;6874;52.084;5.090;2022-08-16T14:58:50;396.60;;;377.73;;
13605;SDS011;6874;52.084;5.090;2022-08-16T15:01:15;384.77;;;366.80;;
13605;SDS011;6874;52.084;5.090;2022-08-16T15:03:41;382.77;;;364.73;;
13605;SDS011;6874;52.084;5.090;2022-08-16T15:06:06;408.40;;;388.87;;
13605;SDS011;6874;52.084;5.090;2022-08-16T15:08:32;406.80;;;387.20;;
13605;SDS011;6874;52.084;5.090;2022-08-16T15:10:57;407.13;;;387.70;;
13605;SDS011;6874;52.084;5.090;2022-08-16T15:13:23;435.90;;;415.10;;
13605;SDS011;6874;52.084;5.090;2022-08-16T15:15:49;448.57;;;427.43;;
13605;SDS011;6874;52.084;5.090;2022-08-16T15:18:15;429.97;;;409.60;;
13605;SDS011;6874;52.084;5.090;2022-08-16T15:20:41;443.27;;;422.07;;
13605;SDS011;6874;52.084;5.090;2022-08-16T15:23:08;453.30;;;432.13;;
13605;SDS011;6874;52.084;5.090;2022-08-16T15:25:36;456.83;;;435.63;;
13605;SDS011;6874;52.084;5.090;2022-08-16T15:28:04;444.27;;;423.67;;
13605;SDS011;6874;52.084;5.090;2022-08-16T15:30:31;459.00;;;437.30;;
13605;SDS011;6874;52.084;5.090;2022-08-16T15:33:08;467.27;;;445.77;;
13605;SDS011;6874;52.084;5.090;2022-08-16T15:35:36;457.03;;;436.30;;
13605;SDS011;6874;52.084;5.090;2022-08-16T15:38:05;453.33;;;432.73;;
13605;SDS011;6874;52.084;5.090;2022-08-16T15:40:31;457.30;;;436.33;;
13605;SDS011;6874;52.084;5.090;2022-08-16T15:42:58;448.63;;;428.37;;
13605;SDS011;6874;52.084;5.090;2022-08-16T15:45:24;443.67;;;423.73;;
13605;SDS011;6874;52.084;5.090;2022-08-16T15:48:10;437.70;;;418.30;;
13605;SDS011;6874;52.084;5.090;2022-08-16T15:50:39;417.50;;;398.87;;
13605;SDS011;6874;52.084;5.090;2022-08-16T15:53:07;409.17;;;390.93;;
13605;SDS011;6874;52.084;5.090;2022-08-16T15:55:35;410.67;;;392.43;;
13605;SDS011;6874;52.084;5.090;2022-08-16T15:58:01;403.33;;;385.17;;
13605;SDS011;6874;52.084;5.090;2022-08-16T16:00:27;367.97;;;351.30;;
13605;SDS011;6874;52.084;5.090;2022-08-16T16:03:27;336.50;;;321.17;;
13605;SDS011;6874;52.084;5.090;2022-08-16T16:05:48;304.63;;;290.10;;
13605;SDS011;6874;52.084;5.090;2022-08-16T16:08:17;290.47;;;276.33;;
13605;SDS011;6874;52.084;5.090;2022-08-16T16:10:45;310.13;;;294.70;;
13605;SDS011;6874;52.084;5.090;2022-08-16T16:13:11;335.37;;;318.67;;
13605;SDS011;6874;52.084;5.090;2022-08-16T16:15:39;375.97;;;357.67;;
13605;SDS011;6874;52.084;5.090;2022-08-16T16:18:07;387.93;;;369.53;;
13605;SDS011;6874;52.084;5.090;2022-08-16T16:20:34;406.10;;;386.80;;
13605;SDS011;6874;52.084;5.090;2022-08-16T16:23:03;417.17;;;397.27;;
13605;SDS011;6874;52.084;5.090;2022-08-16T16:25:30;431.00;;;410.83;;
13605;SDS011;6874;52.084;5.090;2022-08-16T16:27:57;409.90;;;390.97;;
13605;SDS011;6874;52.084;5.090;2022-08-16T16:30:28;409.40;;;390.30;;
13605;SDS011;6874;52.084;5.090;2022-08-16T16:32:55;410.70;;;391.63;;
13605;SDS011;6874;52.084;5.090;2022-08-16T16:35:22;432.47;;;412.87;;
13605;SDS011;6874;52.084;5.090;2022-08-16T16:37:52;435.67;;;415.93;;
13605;SDS011;6874;52.084;5.090;2022-08-16T16:40:22;427.33;;;408.07;;
13605;SDS011;6874;52.084;5.090;2022-08-16T16:42:49;416.93;;;398.17;;
13605;SDS011;6874;52.084;5.090;2022-08-16T16:45:15;433.80;;;414.00;;
13605;SDS011;6874;52.084;5.090;2022-08-16T16:47:41;430.23;;;410.73;;
13605;SDS011;6874;52.084;5.090;2022-08-16T16:50:07;427.67;;;408.60;;
13605;SDS011;6874;52.084;5.090;2022-08-16T16:52:34;430.13;;;410.93;;
13605;SDS011;6874;52.084;5.090;2022-08-16T16:55:02;424.17;;;405.17;;
13605;SDS011;6874;52.084;5.090;2022-08-16T16:57:29;435.53;;;416.23;;
13605;SDS011;6874;52.084;5.090;2022-08-16T17:00:13;438.33;;;419.03;;
13605;SDS011;6874;52.084;5.090;2022-08-16T17:02:39;443.67;;;423.97;;
13605;SDS011;6874;52.084;5.090;2022-08-16T17:05:06;445.17;;;425.70;;
13605;SDS011;6874;52.084;5.090;2022-08-16T17:07:32;454.63;;;434.37;;
13605;SDS011;6874;52.084;5.090;2022-08-16T17:09:57;457.20;;;437.43;;
13605;SDS011;6874;52.084;5.090;2022-08-16T17:12:23;462.30;;;442.33;;
13605;SDS011;6874;52.084;5.090;2022-08-16T17:14:49;458.97;;;439.33;;
13605;SDS011;6874;52.084;5.090;2022-08-16T17:17:15;475.83;;;455.37;;
13605;SDS011;6874;52.084;5.090;2022-08-16T17:19:41;473.27;;;452.97;;
13605;SDS011;6874;52.084;5.090;2022-08-16T17:22:14;487.53;;;466.90;;
13605;SDS011;6874;52.084;5.090;2022-08-16T17:24:44;490.90;;;470.40;;
13605;SDS011;6874;52.084;5.090;2022-08-16T17:27:34;504.10;;;483.23;;
13605;SDS011;6874;52.084;5.090;2022-08-16T17:30:09;532.30;;;510.73;;
13605;SDS011;6874;52.084;5.090;2022-08-16T17:32:37;547.77;;;525.77;;
13605;SDS011;6874;52.084;5.090;2022-08-16T17:35:09;580.00;;;556.53;;
13605;SDS011;6874;52.084;5.090;2022-08-16T17:37:40;610.57;;;586.07;;
13605;SDS011;6874;52.084;5.090;2022-08-16T17:40:07;628.40;;;602.83;;
13605;SDS011;6874;52.084;5.090;2022-08-16T17:42:34;655.00;;;628.40;;
13605;SDS011;6874;52.084;5.090;2022-08-16T17:44:59;652.73;;;626.17;;
13605;SDS011;6874;52.084;5.090;2022-08-16T17:47:26;669.93;;;642.53;;
13605;SDS011;6874;52.084;5.090;2022-08-16T17:49:52;668.97;;;641.67;;
13605;SDS011;6874;52.084;5.090;2022-08-16T17:52:17;665.77;;;638.63;;
13605;SDS011;6874;52.084;5.090;2022-08-16T17:54:43;659.90;;;633.07;;